Terminal Aerodrome Forecast
Issued by NWS Wilmington, NC

Home | Current Version | Previous Version | Text Only | Print | Product List | Glossary On
Versions: 1 2 3 4 5 6 7 8 9 10 11 12 13 14 15 16 17 18
000
FTUS42 KILM 031542 AAA
TAFMYR
TAF AMD
KMYR 031542Z 0316/0412 24010KT P6SM VCSH SCT015 BKN060
     FM032000 21012KT 4SM SHRA VCTS SCT020 BKN050CB
     FM040400 24007KT P6SM SCT070 BKN100=

USA.gov is the U.S. government's official web portal to all federal, state and local government web resources and services.